createdAt,value
2023-03-28T00:02:39.413Z,100.00
2023-03-28T00:05:28.271Z,100.00
2023-03-28T00:08:16.255Z,100.00
2023-03-28T00:11:05.809Z,100.00
2023-03-28T00:13:57.958Z,100.00
2023-03-28T00:16:46.817Z,100.00
2023-03-28T00:19:40.555Z,100.00
2023-03-28T00:22:30.464Z,100.00
2023-03-28T00:25:19.436Z,100.00
2023-03-28T00:28:07.273Z,100.00
2023-03-28T00:31:02.657Z,100.00
2023-03-28T00:33:50.586Z,100.00
2023-03-28T00:36:41.636Z,100.00
2023-03-28T00:39:29.648Z,100.00
2023-03-28T00:42:18.613Z,100.00
2023-03-28T00:45:12.198Z,100.00
2023-03-28T00:48:03.395Z,100.00
2023-03-28T00:50:51.370Z,100.00
2023-03-28T00:53:41.513Z,100.00
2023-03-28T00:56:31.573Z,100.00
2023-03-28T00:59:23.448Z,100.00
2023-03-28T01:02:12.035Z,100.00
2023-03-28T01:05:03.886Z,100.00
2023-03-28T01:07:55.422Z,100.00
2023-03-28T01:10:45.951Z,100.00
2023-03-28T01:13:36.928Z,100.00
2023-03-28T01:16:25.210Z,100.00
2023-03-28T01:19:28.800Z,100.00
2023-03-28T01:22:59.645Z,100.00
2023-03-28T01:26:20.912Z,100.00
2023-03-28T01:29:44.639Z,100.00
2023-03-28T01:32:51.474Z,100.00
2023-03-28T01:36:10.404Z,100.00
2023-03-28T01:39:04.832Z,100.00
2023-03-28T01:42:00.306Z,100.00
2023-03-28T01:44:53.701Z,100.00
2023-03-28T01:47:46.013Z,100.00
2023-03-28T01:50:39.460Z,100.00
2023-03-28T01:53:33.302Z,100.00
2023-03-28T01:56:30.760Z,100.00
2023-03-28T01:59:22.558Z,100.00
2023-03-28T02:02:21.422Z,100.00
2023-03-28T02:05:15.595Z,100.00
2023-03-28T02:08:08.314Z,100.00
2023-03-28T02:10:58.116Z,100.00
2023-03-28T02:13:51.522Z,100.00
2023-03-28T02:16:42.371Z,100.00
2023-03-28T02:19:33.770Z,100.00
2023-03-28T02:22:27.561Z,100.00
2023-03-28T02:25:16.029Z,100.00
2023-03-28T02:28:06.721Z,100.00
2023-03-28T02:30:56.089Z,100.00
2023-03-28T02:33:45.462Z,100.00
2023-03-28T02:36:42.331Z,100.00
2023-03-28T02:39:46.836Z,100.00
2023-03-28T02:42:51.188Z,100.00
2023-03-28T02:46:01.838Z,100.00
2023-03-28T02:49:16.326Z,100.00
2023-03-28T02:52:14.778Z,100.00
2023-03-28T02:55:09.431Z,100.00
2023-03-28T02:58:01.253Z,100.00
2023-03-28T03:00:50.014Z,100.00
2023-03-28T03:03:39.501Z,100.00
2023-03-28T03:06:27.541Z,100.00
2023-03-28T03:09:16.715Z,100.00
2023-03-28T03:12:04.767Z,100.00
2023-03-28T03:14:52.794Z,100.00
2023-03-28T03:17:40.726Z,100.00
2023-03-28T03:20:33.401Z,100.00
2023-03-28T03:23:21.655Z,100.00
2023-03-28T03:26:10.830Z,100.00
2023-03-28T03:28:58.574Z,100.00
2023-03-28T03:31:46.607Z,100.00
2023-03-28T03:34:37.608Z,100.00
2023-03-28T03:37:27.438Z,100.00
2023-03-28T03:40:15.557Z,100.00
2023-03-28T03:43:03.539Z,100.00
2023-03-28T03:45:51.526Z,100.00
2023-03-28T03:48:49.599Z,100.00
2023-03-28T03:51:39.410Z,100.00
2023-03-28T03:54:28.472Z,100.00
2023-03-28T03:57:17.339Z,100.00
2023-03-28T04:00:11.535Z,100.00
2023-03-28T04:02:59.864Z,100.00
2023-03-28T04:05:47.799Z,100.00
2023-03-28T04:08:35.899Z,100.00
2023-03-28T04:11:25.224Z,100.00
2023-03-28T04:14:12.838Z,100.00
2023-03-28T04:17:01.834Z,100.00
2023-03-28T04:19:49.802Z,100.00
2023-03-28T04:22:45.596Z,100.00
2023-03-28T04:25:34.269Z,100.00
2023-03-28T04:28:27.622Z,100.00
2023-03-28T04:31:15.695Z,100.00
2023-03-28T04:34:05.366Z,100.00
2023-03-28T04:36:53.761Z,100.00
2023-03-28T04:39:41.724Z,100.00
2023-03-28T04:42:29.362Z,100.00
2023-03-28T04:45:18.888Z,100.00
2023-03-28T04:48:07.120Z,100.00
2023-03-28T04:50:56.119Z,100.00
2023-03-28T04:53:43.803Z,100.00
2023-03-28T04:56:31.892Z,100.00
2023-03-28T04:59:20.162Z,100.00
2023-03-28T05:02:09.687Z,100.00
2023-03-28T05:04:57.460Z,100.00
2023-03-28T05:07:45.797Z,100.00
2023-03-28T05:10:33.898Z,100.00
2023-03-28T05:13:21.752Z,100.00
2023-03-28T05:16:10.001Z,100.00
2023-03-28T05:18:59.502Z,100.00
2023-03-28T05:21:47.767Z,100.00
2023-03-28T05:24:36.948Z,100.00
2023-03-28T05:27:25.056Z,100.00
2023-03-28T05:30:14.209Z,100.00
2023-03-28T05:33:02.628Z,100.00
2023-03-28T05:35:53.599Z,100.00
2023-03-28T05:38:41.304Z,100.00
2023-03-28T05:41:29.897Z,100.00
2023-03-28T05:44:18.883Z,100.00
2023-03-28T05:47:06.880Z,100.00
2023-03-28T05:49:55.145Z,100.00
2023-03-28T05:52:44.297Z,100.00
2023-03-28T05:55:33.226Z,100.00
2023-03-28T05:58:22.826Z,100.00
2023-03-28T06:01:12.821Z,100.00
2023-03-28T06:04:00.812Z,100.00
2023-03-28T06:06:49.854Z,100.00
2023-03-28T06:09:39.473Z,100.00
2023-03-28T06:12:27.205Z,100.00
2023-03-28T06:15:15.693Z,100.00
2023-03-28T06:18:03.733Z,100.00
2023-03-28T06:20:52.884Z,100.00
2023-03-28T06:23:40.904Z,100.00
2023-03-28T06:26:30.330Z,100.00
2023-03-28T06:29:19.527Z,100.00
2023-03-28T06:32:07.549Z,100.00
2023-03-28T06:34:55.351Z,100.00
2023-03-28T06:37:43.039Z,100.00
2023-03-28T06:40:31.431Z,100.00
2023-03-28T06:43:20.795Z,100.00
2023-03-28T06:46:08.919Z,100.00
2023-03-28T06:48:56.844Z,100.00
2023-03-28T06:51:47.684Z,100.00
2023-03-28T06:54:35.477Z,100.00
2023-03-28T06:57:23.594Z,100.00
2023-03-28T07:00:14.236Z,100.00
2023-03-28T07:03:02.290Z,100.00
2023-03-28T07:05:50.059Z,100.00
2023-03-28T07:08:38.422Z,100.00
2023-03-28T07:11:26.538Z,100.00
2023-03-28T07:14:14.582Z,100.00
2023-03-28T07:17:03.920Z,100.00
2023-03-28T07:19:53.582Z,100.00
2023-03-28T07:22:41.768Z,100.00
2023-03-28T07:25:29.755Z,100.00
2023-03-28T07:28:17.845Z,100.00
2023-03-28T07:31:06.451Z,100.00
2023-03-28T07:33:58.122Z,100.00
2023-03-28T07:36:46.413Z,100.00
2023-03-28T07:39:34.506Z,100.00
2023-03-28T07:42:22.710Z,100.00
2023-03-28T07:45:11.734Z,100.00
2023-03-28T07:47:59.552Z,100.00
2023-03-28T07:50:49.643Z,100.00
2023-03-28T07:53:39.040Z,100.00
2023-03-28T07:56:27.090Z,100.00
2023-03-28T07:59:14.922Z,100.00
2023-03-28T08:02:02.829Z,100.00
2023-03-28T08:04:53.530Z,100.00
2023-03-28T08:07:45.950Z,100.00
2023-03-28T08:10:33.767Z,100.00
2023-03-28T08:13:22.592Z,100.00
2023-03-28T08:16:11.330Z,100.00
2023-03-28T08:19:10.069Z,100.00
2023-03-28T08:22:02.473Z,100.00
2023-03-28T08:24:52.164Z,100.00
2023-03-28T08:27:40.116Z,100.00
2023-03-28T08:30:28.107Z,100.00
2023-03-28T08:33:16.389Z,100.00
2023-03-28T08:36:04.685Z,100.00
2023-03-28T08:38:54.428Z,100.00
2023-03-28T08:42:12.946Z,100.00
2023-03-28T08:45:16.410Z,100.00
2023-03-28T08:48:17.186Z,100.00
2023-03-28T08:51:18.328Z,100.00
2023-03-28T08:54:14.231Z,100.00
2023-03-28T08:57:07.685Z,100.00
2023-03-28T09:00:08.925Z,100.00
2023-03-28T09:02:57.012Z,100.00
2023-03-28T09:05:49.850Z,100.00
2023-03-28T09:08:53.620Z,100.00
2023-03-28T09:11:55.759Z,100.00
2023-03-28T09:15:06.359Z,100.00
2023-03-28T09:18:07.648Z,100.00
2023-03-28T09:21:03.925Z,100.00
2023-03-28T09:24:15.332Z,100.00
2023-03-28T09:27:09.594Z,100.00
2023-03-28T09:30:11.274Z,100.00
2023-03-28T09:33:04.517Z,100.00
2023-03-28T09:35:54.030Z,100.00
2023-03-28T09:38:45.725Z,100.00
2023-03-28T09:41:45.448Z,100.00
2023-03-28T09:44:50.961Z,100.00
2023-03-28T09:47:47.505Z,100.00
2023-03-28T09:50:36.114Z,100.00
2023-03-28T09:53:27.197Z,100.00
2023-03-28T09:56:26.040Z,99.47
2023-03-28T09:59:27.813Z,96.84
2023-03-28T10:02:28.322Z,96.07
2023-03-28T10:05:34.883Z,92.79
2023-03-28T10:08:29.116Z,93.49
2023-03-28T10:11:18.761Z,92.09
2023-03-28T10:14:06.874Z,90.81
2023-03-28T10:16:54.713Z,90.20
2023-03-28T10:19:45.823Z,91.15
2023-03-28T10:22:36.693Z,90.19
2023-03-28T10:25:36.372Z,89.62
2023-03-28T10:28:31.651Z,88.96
2023-03-28T10:31:29.394Z,88.10
2023-03-28T10:34:27.859Z,89.89
2023-03-28T10:37:27.285Z,88.92
2023-03-28T10:40:29.667Z,87.93
2023-03-28T10:43:17.508Z,88.91
2023-03-28T10:46:15.457Z,87.05
2023-03-28T10:49:05.726Z,86.57
2023-03-28T10:51:53.530Z,89.18
2023-03-28T10:54:56.329Z,87.45
2023-03-28T10:57:56.758Z,88.14
2023-03-28T11:00:52.373Z,86.24
2023-03-28T11:03:58.199Z,86.49
2023-03-28T11:06:54.423Z,82.13
2023-03-28T11:09:47.956Z,80.50
2023-03-28T11:12:54.263Z,77.62
2023-03-28T11:15:54.573Z,81.81
2023-03-28T11:18:57.222Z,82.01
2023-03-28T11:21:56.738Z,82.44
2023-03-28T11:24:51.619Z,79.38
2023-03-28T11:27:46.100Z,77.25
2023-03-28T11:30:36.207Z,76.13
2023-03-28T11:33:33.176Z,77.66
2023-03-28T11:36:25.576Z,77.36
2023-03-28T11:39:21.673Z,75.38
2023-03-28T11:42:15.474Z,77.56
2023-03-28T11:45:09.396Z,79.70
2023-03-28T11:48:05.584Z,76.20
2023-03-28T11:51:05.148Z,72.65
2023-03-28T11:53:58.867Z,71.51
2023-03-28T11:56:54.489Z,66.33
2023-03-28T11:59:51.567Z,70.09
2023-03-28T12:02:43.815Z,69.16
2023-03-28T12:05:36.680Z,71.83
2023-03-28T12:08:34.960Z,74.74
2023-03-28T12:11:29.251Z,70.10
2023-03-28T12:14:41.918Z,69.33
2023-03-28T12:17:35.511Z,66.98
2023-03-28T12:20:31.733Z,66.99
2023-03-28T12:23:31.591Z,67.20
2023-03-28T12:26:28.704Z,59.79
2023-03-28T12:29:25.446Z,65.63
2023-03-28T12:32:34.405Z,60.00
2023-03-28T12:35:27.940Z,65.86
2023-03-28T12:38:33.935Z,64.65
2023-03-28T12:41:25.933Z,61.35
2023-03-28T12:44:21.033Z,66.68
2023-03-28T12:47:16.883Z,64.25
2023-03-28T12:50:08.903Z,65.34
2023-03-28T12:52:57.916Z,62.74
2023-03-28T12:55:49.922Z,61.31
2023-03-28T12:58:38.714Z,63.05
2023-03-28T13:01:43.269Z,62.21
2023-03-28T13:04:37.790Z,62.96
2023-03-28T13:07:37.161Z,62.22
2023-03-28T13:10:33.787Z,60.11
2023-03-28T13:13:34.786Z,56.38
2023-03-28T13:16:28.686Z,63.41
2023-03-28T13:19:18.765Z,64.03
2023-03-28T13:22:06.959Z,64.49
2023-03-28T13:25:13.857Z,62.78
2023-03-28T13:28:22.703Z,61.63
2023-03-28T13:31:19.968Z,58.10
2023-03-28T13:34:18.821Z,58.13
2023-03-28T13:37:22.806Z,61.27
2023-03-28T13:40:45.504Z,60.35
2023-03-28T13:43:43.614Z,60.59
2023-03-28T13:46:37.654Z,57.07
2023-03-28T13:49:33.354Z,56.61
2023-03-28T13:52:24.665Z,57.05
2023-03-28T13:55:21.960Z,57.63
2023-03-28T13:58:13.854Z,51.14
2023-03-28T14:01:09.452Z,58.50
2023-03-28T14:03:58.552Z,59.74
2023-03-28T14:06:46.489Z,61.35
2023-03-28T14:09:36.029Z,58.25
2023-03-28T14:12:24.987Z,56.55
2023-03-28T14:15:17.674Z,58.99
2023-03-28T14:18:06.161Z,56.24
2023-03-28T14:20:56.815Z,57.16
2023-03-28T14:23:56.793Z,64.43
2023-03-28T14:26:44.880Z,61.61
2023-03-28T14:29:32.789Z,60.39
2023-03-28T14:32:26.925Z,60.91
2023-03-28T14:35:24.187Z,60.56
2023-03-28T14:38:16.807Z,58.63
2023-03-28T14:41:17.200Z,56.18
2023-03-28T14:44:08.145Z,65.49
2023-03-28T14:46:59.257Z,64.87
2023-03-28T14:49:47.646Z,60.71
2023-03-28T14:52:40.936Z,62.04
2023-03-28T14:55:30.323Z,63.20
2023-03-28T14:58:20.313Z,64.27
2023-03-28T15:01:12.132Z,64.52
2023-03-28T15:04:02.506Z,59.96
2023-03-28T15:06:55.852Z,59.69
2023-03-28T15:09:46.442Z,62.12
2023-03-28T15:12:43.039Z,64.33
2023-03-28T15:15:33.107Z,65.03
2023-03-28T15:18:26.483Z,65.78
2023-03-28T15:21:15.782Z,65.22
2023-03-28T15:24:04.514Z,65.23
2023-03-28T15:26:57.811Z,65.73
2023-03-28T15:29:47.313Z,65.67
2023-03-28T15:32:35.149Z,66.51
2023-03-28T15:35:30.618Z,67.95
2023-03-28T15:38:22.847Z,68.28
2023-03-28T15:41:19.149Z,62.81
2023-03-28T15:44:28.855Z,62.82
2023-03-28T15:47:23.586Z,59.70
2023-03-28T15:50:17.597Z,58.43
2023-03-28T15:53:07.577Z,67.40
2023-03-28T15:55:56.595Z,68.56
2023-03-28T15:58:47.046Z,64.17
2023-03-28T16:01:35.398Z,65.44
2023-03-28T16:04:27.774Z,64.42
2023-03-28T16:07:17.102Z,69.80
2023-03-28T16:10:05.350Z,70.94
2023-03-28T16:12:53.512Z,70.44
2023-03-28T16:15:41.545Z,72.50
2023-03-28T16:18:29.333Z,72.66
2023-03-28T16:21:19.511Z,72.63
2023-03-28T16:24:07.964Z,72.08
2023-03-28T16:26:56.292Z,64.14
2023-03-28T16:29:44.314Z,65.42
2023-03-28T16:32:31.948Z,69.09
2023-03-28T16:35:20.065Z,70.80
2023-03-28T16:38:11.429Z,71.87
2023-03-28T16:40:59.699Z,66.87
2023-03-28T16:43:47.353Z,71.41
2023-03-28T16:46:35.494Z,56.16
2023-03-28T16:49:23.691Z,69.05
2023-03-28T16:52:11.555Z,72.70
2023-03-28T16:55:00.715Z,72.49
2023-03-28T16:57:49.353Z,66.31
2023-03-28T17:00:37.428Z,74.29
2023-03-28T17:03:25.562Z,65.42
2023-03-28T17:06:14.988Z,63.17
2023-03-28T17:09:04.509Z,67.25
2023-03-28T17:11:53.913Z,71.59
2023-03-28T17:14:41.862Z,74.79
2023-03-28T17:17:29.819Z,73.04
2023-03-28T17:20:18.410Z,79.04
2023-03-28T17:23:06.556Z,80.76
2023-03-28T17:25:55.186Z,80.79
2023-03-28T17:28:44.377Z,78.35
2023-03-28T17:31:32.480Z,83.74
2023-03-28T17:34:20.370Z,84.99
2023-03-28T17:37:08.348Z,85.60
2023-03-28T17:39:56.372Z,86.39
2023-03-28T17:42:44.636Z,87.56
2023-03-28T17:45:33.790Z,88.44
2023-03-28T17:48:21.887Z,89.82
2023-03-28T17:51:10.935Z,90.98
2023-03-28T17:54:00.873Z,91.91
2023-03-28T17:56:48.755Z,93.50
2023-03-28T17:59:36.640Z,94.28
2023-03-28T18:02:26.237Z,95.57
2023-03-28T18:05:16.883Z,96.77
2023-03-28T18:08:04.996Z,97.91
2023-03-28T18:10:52.767Z,98.72
2023-03-28T18:13:41.138Z,100.00
2023-03-28T18:16:29.175Z,100.00
2023-03-28T18:19:18.662Z,100.00
2023-03-28T18:22:06.665Z,100.00
2023-03-28T18:24:57.397Z,100.00
2023-03-28T18:27:45.545Z,100.00
2023-03-28T18:30:33.608Z,100.00
2023-03-28T18:33:22.048Z,100.00
2023-03-28T18:36:12.398Z,100.00
2023-03-28T18:39:01.211Z,100.00
2023-03-28T18:41:49.468Z,100.00
2023-03-28T18:44:37.634Z,100.00
2023-03-28T18:47:25.566Z,100.00
2023-03-28T18:50:15.137Z,100.00
2023-03-28T18:53:04.896Z,100.00
2023-03-28T18:55:53.099Z,100.00
2023-03-28T18:58:41.399Z,100.00
2023-03-28T19:01:29.925Z,100.00
2023-03-28T19:04:17.690Z,100.00
2023-03-28T19:07:06.103Z,100.00
2023-03-28T19:09:55.475Z,100.00
2023-03-28T19:12:43.489Z,100.00
2023-03-28T19:15:31.808Z,100.00
2023-03-28T19:18:19.743Z,100.00
2023-03-28T19:21:08.899Z,100.00
2023-03-28T19:23:57.134Z,100.00
2023-03-28T19:26:46.347Z,100.00
2023-03-28T19:29:36.105Z,100.00
2023-03-28T19:32:24.550Z,100.00
2023-03-28T19:35:13.034Z,100.00
2023-03-28T19:38:02.377Z,100.00
2023-03-28T19:40:52.175Z,100.00
2023-03-28T19:43:41.160Z,100.00
2023-03-28T19:46:33.093Z,100.00
2023-03-28T19:49:23.327Z,100.00
2023-03-28T19:52:11.530Z,100.00
2023-03-28T19:54:59.307Z,100.00
2023-03-28T19:57:47.415Z,100.00
2023-03-28T20:00:36.925Z,100.00
2023-03-28T20:03:25.035Z,100.00
2023-03-28T20:06:14.117Z,100.00
2023-03-28T20:09:02.230Z,100.00
2023-03-28T20:11:50.686Z,100.00
2023-03-28T20:14:38.410Z,100.00
2023-03-28T20:17:27.804Z,100.00
2023-03-28T20:20:16.272Z,100.00
2023-03-28T20:23:04.648Z,100.00
2023-03-28T20:25:54.430Z,100.00
2023-03-28T20:28:42.493Z,100.00
2023-03-28T20:31:31.214Z,100.00
2023-03-28T20:34:20.880Z,100.00
2023-03-28T20:37:08.980Z,100.00
2023-03-28T20:39:57.065Z,100.00
2023-03-28T20:42:44.765Z,100.00
2023-03-28T20:45:33.735Z,100.00
2023-03-28T20:48:34.281Z,100.00
2023-03-28T20:51:29.072Z,100.00
2023-03-28T20:54:17.350Z,100.00
2023-03-28T20:57:05.333Z,100.00
2023-03-28T20:59:55.257Z,100.00
2023-03-28T21:02:42.991Z,100.00
2023-03-28T21:05:32.418Z,100.00
2023-03-28T21:08:21.490Z,100.00
2023-03-28T21:11:09.637Z,100.00
2023-03-28T21:13:58.998Z,100.00
2023-03-28T21:16:47.412Z,100.00
2023-03-28T21:19:37.572Z,100.00
2023-03-28T21:22:26.050Z,100.00
2023-03-28T21:25:15.289Z,100.00
2023-03-28T21:28:03.030Z,100.00
2023-03-28T21:30:58.658Z,100.00
2023-03-28T21:33:46.697Z,100.00
2023-03-28T21:36:34.475Z,100.00
2023-03-28T21:39:22.585Z,100.00
2023-03-28T21:42:11.646Z,100.00
2023-03-28T21:44:59.321Z,100.00
2023-03-28T21:47:47.706Z,100.00
2023-03-28T21:50:38.811Z,100.00
2023-03-28T21:53:27.873Z,100.00
2023-03-28T21:56:16.807Z,100.00
2023-03-28T21:59:06.636Z,100.00
2023-03-28T22:01:54.372Z,100.00
2023-03-28T22:04:43.012Z,100.00
2023-03-28T22:07:30.753Z,100.00
2023-03-28T22:10:19.428Z,100.00
2023-03-28T22:13:07.819Z,100.00
2023-03-28T22:15:59.562Z,100.00
2023-03-28T22:18:49.819Z,100.00
2023-03-28T22:21:38.690Z,100.00
2023-03-28T22:24:27.213Z,100.00
2023-03-28T22:27:15.234Z,100.00
2023-03-28T22:30:03.229Z,100.00
2023-03-28T22:32:52.551Z,100.00
2023-03-28T22:35:40.331Z,100.00
2023-03-28T22:38:28.334Z,100.00
2023-03-28T22:41:16.808Z,100.00
2023-03-28T22:44:04.475Z,100.00
2023-03-28T22:46:52.508Z,100.00
2023-03-28T22:49:41.750Z,100.00
2023-03-28T22:52:31.687Z,100.00
2023-03-28T22:55:22.132Z,100.00
2023-03-28T22:58:10.152Z,100.00
2023-03-28T23:00:58.580Z,100.00
2023-03-28T23:03:46.324Z,100.00
2023-03-28T23:06:36.071Z,100.00
2023-03-28T23:09:27.279Z,100.00
2023-03-28T23:12:15.820Z,100.00
2023-03-28T23:15:04.222Z,100.00
2023-03-28T23:17:52.057Z,100.00
2023-03-28T23:20:40.095Z,100.00
2023-03-28T23:23:29.470Z,100.00
2023-03-28T23:26:17.780Z,100.00
2023-03-28T23:29:06.231Z,100.00
2023-03-28T23:31:54.224Z,100.00
2023-03-28T23:34:42.391Z,100.00
2023-03-28T23:37:30.511Z,100.00
2023-03-28T23:40:20.566Z,100.00
2023-03-28T23:43:11.589Z,100.00
2023-03-28T23:46:01.951Z,100.00
2023-03-28T23:48:50.636Z,100.00
2023-03-28T23:51:38.610Z,100.00
2023-03-28T23:54:26.686Z,100.00
2023-03-28T23:57:15.697Z,100.00
